createdAt,value
2023-03-01T00:03:39.981Z,34.17
2023-03-01T00:07:42.879Z,43.63
2023-03-01T00:11:44.781Z,28.30
2023-03-01T00:15:46.219Z,38.00
2023-03-01T00:19:47.702Z,41.85
2023-03-01T00:23:50.692Z,31.48
2023-03-01T00:27:52.401Z,27.75
2023-03-01T00:31:53.873Z,48.47
2023-03-01T00:35:55.481Z,35.85
2023-03-01T00:39:58.256Z,38.78
2023-03-01T00:43:59.705Z,30.85
2023-03-01T00:48:01.167Z,47.83
2023-03-01T00:52:02.672Z,33.83
2023-03-01T00:56:07.493Z,37.90
2023-03-01T01:00:10.217Z,38.65
2023-03-01T01:04:13.885Z,30.38
2023-03-01T01:08:15.345Z,29.77
2023-03-01T01:12:18.187Z,49.30
2023-03-01T01:16:21.335Z,33.70
2023-03-01T01:20:22.806Z,38.30
2023-03-01T01:24:24.406Z,40.65
2023-03-01T01:28:27.206Z,54.03
2023-03-01T01:32:29.555Z,32.10
2023-03-01T01:36:31.490Z,41.35
2023-03-01T01:40:33.161Z,36.75
2023-03-01T01:44:36.280Z,35.53
2023-03-01T01:48:42.612Z,35.97
2023-03-01T01:52:44.176Z,39.92
2023-03-01T01:56:49.891Z,35.08
2023-03-01T02:00:53.625Z,32.45
2023-03-01T02:05:07.342Z,38.78
2023-03-01T02:09:13.752Z,35.10
2023-03-01T02:13:15.569Z,34.97
2023-03-01T02:17:19.789Z,34.58
2023-03-01T02:21:43.596Z,53.92
2023-03-01T02:25:51.416Z,41.38
2023-03-01T02:29:55.702Z,37.75
2023-03-01T02:33:58.782Z,37.58
2023-03-01T02:38:01.936Z,39.08
2023-03-01T02:42:04.858Z,38.03
2023-03-01T02:46:09.846Z,48.55
2023-03-01T02:50:22.595Z,52.85
2023-03-01T02:58:27.375Z,34.17
2023-03-01T03:02:31.281Z,48.28
2023-03-01T03:06:33.138Z,31.05
2023-03-01T03:10:37.630Z,32.90
2023-03-01T03:14:39.081Z,34.58
2023-03-01T03:18:41.874Z,37.38
2023-03-01T03:22:43.347Z,38.55
2023-03-01T03:26:44.782Z,40.45
2023-03-01T03:30:46.310Z,49.40
2023-03-01T03:34:49.212Z,34.42
2023-03-01T03:38:50.846Z,37.60
2023-03-01T03:42:52.281Z,31.40
2023-03-01T03:46:53.699Z,44.25
2023-03-01T03:50:57.282Z,38.97
2023-03-01T03:54:58.754Z,48.08
2023-03-01T03:59:00.173Z,29.83
2023-03-01T04:03:01.640Z,37.80
2023-03-01T04:07:04.514Z,50.08
2023-03-01T04:11:07.050Z,41.88
2023-03-01T04:15:08.858Z,51.22
2023-03-01T04:19:10.287Z,35.47
2023-03-01T04:23:14.622Z,39.35
2023-03-01T04:27:16.056Z,48.55
2023-03-01T04:31:19.920Z,46.50
2023-03-01T04:35:21.361Z,56.83
2023-03-01T04:39:24.123Z,59.80
2023-03-01T04:43:25.543Z,34.10
2023-03-01T04:47:26.999Z,31.67
2023-03-01T04:51:28.529Z,42.80
2023-03-01T04:55:31.458Z,34.85
2023-03-01T04:59:33.096Z,42.53
2023-03-01T05:03:34.509Z,35.17
2023-03-01T05:07:35.947Z,35.95
2023-03-01T05:11:38.806Z,34.25
2023-03-01T05:15:40.560Z,42.58
2023-03-01T05:19:42.037Z,31.15
2023-03-01T05:23:43.532Z,53.97
2023-03-01T05:27:46.306Z,37.70
2023-03-01T05:31:47.769Z,37.25
2023-03-01T05:35:50.840Z,44.55
2023-03-01T05:39:52.355Z,37.17
2023-03-01T05:43:55.114Z,36.05
2023-03-01T05:47:56.550Z,34.47
2023-03-01T05:51:57.979Z,43.83
2023-03-01T05:55:59.417Z,35.85
2023-03-01T06:00:02.298Z,44.85
2023-03-01T06:04:04.739Z,42.80
2023-03-01T06:08:06.804Z,43.05
2023-03-01T06:12:08.392Z,43.42
2023-03-01T06:16:12.087Z,38.00
2023-03-01T06:20:15.805Z,36.20
2023-03-01T06:24:17.255Z,41.85
2023-03-01T06:28:18.801Z,45.00
2023-03-01T06:32:21.638Z,46.65
2023-03-01T06:36:23.105Z,36.83
2023-03-01T06:40:24.602Z,46.45
2023-03-01T06:44:26.269Z,46.40
2023-03-01T06:48:29.047Z,44.38
2023-03-01T06:52:31.746Z,33.03
2023-03-01T06:56:34.074Z,34.40
2023-03-01T07:00:35.679Z,53.55
2023-03-01T07:04:38.571Z,42.20
2023-03-01T07:08:40.262Z,43.90
2023-03-01T07:12:41.757Z,39.63
2023-03-01T07:16:43.278Z,47.33
2023-03-01T07:20:46.083Z,42.03
2023-03-01T07:24:47.554Z,41.85
2023-03-01T07:28:49.075Z,68.13
2023-03-01T07:32:50.647Z,30.83
2023-03-01T07:36:53.554Z,37.75
2023-03-01T07:40:58.557Z,44.67
2023-03-01T07:44:59.994Z,39.33
2023-03-01T07:49:01.468Z,35.97
2023-03-01T07:53:04.318Z,36.13
2023-03-01T07:57:05.758Z,34.60
2023-03-01T08:01:09.356Z,38.05
2023-03-01T08:05:11.284Z,34.10
2023-03-01T08:09:14.108Z,35.70
2023-03-01T08:13:15.552Z,32.58
2023-03-01T08:17:17.157Z,34.63
2023-03-01T08:21:19.683Z,32.10
2023-03-01T08:25:22.468Z,35.10
2023-03-01T08:29:24.299Z,37.00
2023-03-01T08:33:25.766Z,36.20
2023-03-01T08:37:27.317Z,30.45
2023-03-01T08:41:30.401Z,37.97
2023-03-01T08:45:31.920Z,29.98
2023-03-01T08:49:33.604Z,35.75
2023-03-01T08:53:35.141Z,40.72
2023-03-01T08:57:37.895Z,36.45
2023-03-01T09:01:39.881Z,34.40
2023-03-01T09:05:41.309Z,32.88
2023-03-01T09:09:42.811Z,37.33
2023-03-01T09:13:46.847Z,37.78
2023-03-01T09:17:48.340Z,30.05
2023-03-01T09:21:49.826Z,38.80
2023-03-01T09:25:51.243Z,30.85
2023-03-01T09:29:54.022Z,37.17
2023-03-01T09:33:55.906Z,33.67
2023-03-01T09:37:57.336Z,31.23
2023-03-01T09:42:03.801Z,26.98
2023-03-01T09:50:13.968Z,23.77
2023-03-01T09:54:15.542Z,32.13
2023-03-01T09:58:35.287Z,37.55
2023-03-01T10:02:44.582Z,28.00
2023-03-01T10:06:56.862Z,60.67
2023-03-01T10:15:06.328Z,29.80
2023-03-01T10:19:13.420Z,27.08
2023-03-01T10:23:15.044Z,35.50
2023-03-01T10:27:21.819Z,30.48
2023-03-01T10:31:26.759Z,29.95
2023-03-01T10:35:33.602Z,25.35
2023-03-01T10:39:35.763Z,23.25
2023-03-01T10:43:45.199Z,30.08
2023-03-01T10:47:46.668Z,24.15
2023-03-01T10:51:52.252Z,20.02
2023-03-01T10:55:59.854Z,26.65
2023-03-01T11:00:15.733Z,23.02
2023-03-01T11:04:17.217Z,34.58
2023-03-01T11:08:33.783Z,26.15
2023-03-01T11:12:36.378Z,26.70
2023-03-01T11:16:39.667Z,24.13
2023-03-01T11:20:42.259Z,24.25
2023-03-01T11:24:57.257Z,23.67
2023-03-01T11:29:07.140Z,24.77
2023-03-01T11:33:19.959Z,23.98
2023-03-01T11:37:29.784Z,22.05
2023-03-01T11:41:35.297Z,24.98
2023-03-01T11:45:48.446Z,38.75
2023-03-01T11:50:16.979Z,19.33
2023-03-01T11:54:29.440Z,20.30
2023-03-01T12:03:02.304Z,27.75
2023-03-01T12:07:11.645Z,21.70
2023-03-01T12:11:26.936Z,20.83
2023-03-01T12:15:45.871Z,23.95
2023-03-01T12:20:10.361Z,23.15
2023-03-01T12:24:37.470Z,18.83
2023-03-01T12:29:01.137Z,19.85
2023-03-01T12:33:18.496Z,23.00
2023-03-01T12:37:30.390Z,25.38
2023-03-01T12:41:44.350Z,19.33
2023-03-01T12:45:57.402Z,24.00
2023-03-01T12:50:05.679Z,18.15
2023-03-01T12:54:15.999Z,25.05
2023-03-01T12:58:25.050Z,24.00
2023-03-01T13:02:33.306Z,22.85
2023-03-01T13:06:46.103Z,22.27
2023-03-01T13:10:51.221Z,17.77
2023-03-01T13:14:55.163Z,21.27
2023-03-01T13:19:09.627Z,21.80
2023-03-01T13:23:24.468Z,20.75
2023-03-01T13:27:25.946Z,20.90
2023-03-01T13:32:01.005Z,21.52
2023-03-01T13:36:02.723Z,20.52
2023-03-01T13:40:45.587Z,25.80
2023-03-01T13:44:48.465Z,19.33
2023-03-01T13:48:53.228Z,18.40
2023-03-01T13:52:58.603Z,16.65
2023-03-01T13:57:02.588Z,17.85
2023-03-01T14:01:08.307Z,19.98
2023-03-01T14:05:10.482Z,20.42
2023-03-01T14:09:23.665Z,17.05
2023-03-01T14:13:39.888Z,20.35
2023-03-01T14:18:03.372Z,18.13
2023-03-01T14:22:17.525Z,16.40
2023-03-01T14:26:22.117Z,18.08
2023-03-01T14:30:26.572Z,18.40
2023-03-01T14:34:29.369Z,21.98
2023-03-01T14:38:34.877Z,21.60
2023-03-01T14:42:37.531Z,24.38
2023-03-01T14:46:41.813Z,21.33
2023-03-01T14:50:45.956Z,16.33
2023-03-01T14:54:50.093Z,18.10
2023-03-01T14:59:00.142Z,18.40
2023-03-01T15:03:06.260Z,16.42
2023-03-01T15:07:13.726Z,19.58
2023-03-01T15:11:22.119Z,23.45
2023-03-01T15:15:37.138Z,17.90
2023-03-01T15:19:38.900Z,17.95
2023-03-01T15:23:41.838Z,19.27
2023-03-01T15:27:46.941Z,15.65
2023-03-01T15:31:56.288Z,15.05
2023-03-01T15:35:59.505Z,20.65
2023-03-01T15:40:02.410Z,23.95
2023-03-01T15:44:16.459Z,16.45
2023-03-01T15:48:20.387Z,16.60
2023-03-01T15:52:25.958Z,19.25
2023-03-01T15:56:28.973Z,20.15
2023-03-01T16:00:30.866Z,16.70
2023-03-01T16:04:32.390Z,17.80
2023-03-01T16:08:33.956Z,15.88
2023-03-01T16:12:36.718Z,15.38
2023-03-01T16:16:38.245Z,18.77
2023-03-01T16:20:40.673Z,13.50
2023-03-01T16:24:42.122Z,17.15
2023-03-01T16:28:46.108Z,12.90
2023-03-01T16:32:49.545Z,16.10
2023-03-01T16:36:51.095Z,21.38
2023-03-01T16:40:52.850Z,20.80
2023-03-01T16:44:56.974Z,16.33
2023-03-01T16:48:58.440Z,16.83
2023-03-01T16:52:59.877Z,18.73
2023-03-01T16:57:01.341Z,13.13
2023-03-01T17:01:10.195Z,16.92
2023-03-01T17:05:11.771Z,24.08
2023-03-01T17:09:13.908Z,15.90
2023-03-01T17:13:15.797Z,25.60
2023-03-01T17:17:18.640Z,29.63
2023-03-01T17:21:20.160Z,23.08
2023-03-01T17:25:21.597Z,18.48
2023-03-01T17:29:23.073Z,19.95
2023-03-01T17:33:25.938Z,18.55
2023-03-01T17:37:27.375Z,19.70
2023-03-01T17:41:29.045Z,22.05
2023-03-01T17:45:30.757Z,21.42
2023-03-01T17:49:33.620Z,18.08
2023-03-01T17:53:35.818Z,26.92
2023-03-01T17:57:39.609Z,31.80
2023-03-01T18:01:42.151Z,24.77
2023-03-01T18:05:45.024Z,29.92
2023-03-01T18:09:46.460Z,28.35
2023-03-01T18:13:48.398Z,37.28
2023-03-01T18:17:49.856Z,35.65
2023-03-01T18:21:52.624Z,31.60
2023-03-01T18:25:58.577Z,32.13
2023-03-01T18:30:00.005Z,25.73
2023-03-01T18:34:01.504Z,38.70
2023-03-01T18:38:04.575Z,33.50
2023-03-01T18:42:06.138Z,31.55
2023-03-01T18:46:07.732Z,35.38
2023-03-01T18:50:10.231Z,27.17
2023-03-01T18:54:13.170Z,27.35
2023-03-01T18:58:14.631Z,32.83
2023-03-01T19:02:16.201Z,29.42
2023-03-01T19:06:19.040Z,27.55
2023-03-01T19:10:21.872Z,25.65
2023-03-01T19:14:23.454Z,27.98
2023-03-01T19:18:25.010Z,27.83
2023-03-01T19:22:27.323Z,32.92
2023-03-01T19:26:31.684Z,40.70
2023-03-01T19:30:33.370Z,30.77
2023-03-01T19:34:34.963Z,40.30
2023-03-01T19:38:37.544Z,33.65
2023-03-01T19:42:40.363Z,37.15
2023-03-01T19:46:42.016Z,33.17
2023-03-01T19:50:43.899Z,33.53
2023-03-01T19:54:45.421Z,28.30
2023-03-01T19:58:48.616Z,23.65
2023-03-01T20:02:50.154Z,28.75
2023-03-01T20:06:51.657Z,24.52
2023-03-01T20:10:53.111Z,22.00
2023-03-01T20:14:56.063Z,20.25
2023-03-01T20:18:59.834Z,19.83
2023-03-01T20:23:01.378Z,32.08
2023-03-01T20:27:02.889Z,32.20
2023-03-01T20:31:07.868Z,24.85
2023-03-01T20:35:10.455Z,21.00
2023-03-01T20:39:11.912Z,17.73
2023-03-01T20:43:13.327Z,22.38
2023-03-01T20:47:16.154Z,20.58
2023-03-01T20:51:18.063Z,23.20
2023-03-01T20:55:19.520Z,28.08
2023-03-01T20:59:21.146Z,20.92
2023-03-01T21:03:24.081Z,24.95
2023-03-01T21:07:25.542Z,34.00
2023-03-01T21:11:27.103Z,28.25
2023-03-01T21:15:29.721Z,24.48
2023-03-01T21:19:36.232Z,20.95
2023-03-01T21:23:39.462Z,24.42
2023-03-01T21:27:40.915Z,22.23
2023-03-01T21:31:42.411Z,22.33
2023-03-01T21:35:45.248Z,27.23
2023-03-01T21:39:46.708Z,30.23
2023-03-01T21:43:49.673Z,29.90
2023-03-01T21:47:51.120Z,27.50
2023-03-01T21:51:53.942Z,27.88
2023-03-01T21:55:55.432Z,36.20
2023-03-01T21:59:56.872Z,32.70
2023-03-01T22:04:00.139Z,31.98
2023-03-01T22:08:02.953Z,35.03
2023-03-01T22:12:04.885Z,26.83
2023-03-01T22:16:06.836Z,25.08
2023-03-01T22:20:09.839Z,33.03
2023-03-01T22:24:13.015Z,22.60
2023-03-01T22:28:14.520Z,19.23
2023-03-01T22:32:16.150Z,22.02
2023-03-01T22:36:17.896Z,21.58
2023-03-01T22:40:20.804Z,22.20
2023-03-01T22:44:23.933Z,22.63
2023-03-01T22:48:26.263Z,34.55
2023-03-01T22:52:27.697Z,27.05
2023-03-01T22:56:33.003Z,27.92
2023-03-01T23:00:34.648Z,22.52
2023-03-01T23:04:36.153Z,28.20
2023-03-01T23:08:37.763Z,32.03
2023-03-01T23:12:41.260Z,25.52
2023-03-01T23:16:42.891Z,58.67
2023-03-01T23:20:44.340Z,37.33
2023-03-01T23:24:45.995Z,33.88
2023-03-01T23:28:48.970Z,25.00
2023-03-01T23:32:50.393Z,35.03
2023-03-01T23:36:52.843Z,27.92
2023-03-01T23:40:54.283Z,37.97
2023-03-01T23:44:57.114Z,34.53
2023-03-01T23:48:59.000Z,29.38
2023-03-01T23:53:00.407Z,29.80
2023-03-01T23:57:01.879Z,28.10
